sensor_id;sensor_type;location;lat;lon;timestamp;P1;durP1;ratioP1;P2;durP2;ratioP2
3267;SDS011;1646;52.450;13.326;2022-07-29T00:03:51;8.10;;;3.20;;
3267;SDS011;1646;52.450;13.326;2022-07-29T00:08:49;4.67;;;2.73;;
3267;SDS011;1646;52.450;13.326;2022-07-29T00:13:47;10.73;;;3.20;;
3267;SDS011;1646;52.450;13.326;2022-07-29T00:18:47;5.57;;;2.93;;
3267;SDS011;1646;52.450;13.326;2022-07-29T00:23:45;6.70;;;3.03;;
3267;SDS011;1646;52.450;13.326;2022-07-29T00:28:43;9.10;;;3.57;;
3267;SDS011;1646;52.450;13.326;2022-07-29T00:33:41;7.97;;;3.50;;
3267;SDS011;1646;52.450;13.326;2022-07-29T00:38:41;4.63;;;3.30;;
3267;SDS011;1646;52.450;13.326;2022-07-29T00:43:41;7.03;;;3.40;;
3267;SDS011;1646;52.450;13.326;2022-07-29T00:48:39;5.80;;;3.57;;
3267;SDS011;1646;52.450;13.326;2022-07-29T00:53:37;7.17;;;3.60;;
3267;SDS011;1646;52.450;13.326;2022-07-29T00:58:37;8.07;;;3.10;;
3267;SDS011;1646;52.450;13.326;2022-07-29T01:03:35;5.23;;;2.87;;
3267;SDS011;1646;52.450;13.326;2022-07-29T01:08:33;4.90;;;3.33;;
3267;SDS011;1646;52.450;13.326;2022-07-29T01:13:32;8.83;;;3.33;;
3267;SDS011;1646;52.450;13.326;2022-07-29T01:18:33;8.23;;;3.37;;
3267;SDS011;1646;52.450;13.326;2022-07-29T01:23:40;6.10;;;3.60;;
3267;SDS011;1646;52.450;13.326;2022-07-29T01:34:16;5.70;;;3.30;;
3267;SDS011;1646;52.450;13.326;2022-07-29T01:39:19;3.53;;;3.23;;
3267;SDS011;1646;52.450;13.326;2022-07-29T01:44:26;4.63;;;3.30;;
3267;SDS011;1646;52.450;13.326;2022-07-29T01:49:30;5.93;;;3.47;;
3267;SDS011;1646;52.450;13.326;2022-07-29T01:54:34;7.63;;;3.67;;
3267;SDS011;1646;52.450;13.326;2022-07-29T01:59:37;7.23;;;3.57;;
3267;SDS011;1646;52.450;13.326;2022-07-29T02:04:37;4.83;;;3.37;;
3267;SDS011;1646;52.450;13.326;2022-07-29T02:09:38;8.77;;;3.50;;
3267;SDS011;1646;52.450;13.326;2022-07-29T02:14:40;5.97;;;3.77;;
3267;SDS011;1646;52.450;13.326;2022-07-29T02:19:41;8.90;;;3.57;;
3267;SDS011;1646;52.450;13.326;2022-07-29T02:24:41;6.30;;;3.80;;
3267;SDS011;1646;52.450;13.326;2022-07-29T02:29:41;4.73;;;3.00;;
3267;SDS011;1646;52.450;13.326;2022-07-29T02:34:40;5.83;;;2.80;;
3267;SDS011;1646;52.450;13.326;2022-07-29T02:39:40;4.77;;;3.50;;
3267;SDS011;1646;52.450;13.326;2022-07-29T02:44:42;5.77;;;3.27;;
3267;SDS011;1646;52.450;13.326;2022-07-29T02:49:43;4.90;;;3.00;;
3267;SDS011;1646;52.450;13.326;2022-07-29T02:54:51;6.30;;;3.10;;
3267;SDS011;1646;52.450;13.326;2022-07-29T02:59:53;5.97;;;3.53;;
3267;SDS011;1646;52.450;13.326;2022-07-29T03:04:56;11.60;;;3.37;;
3267;SDS011;1646;52.450;13.326;2022-07-29T03:09:56;6.23;;;3.13;;
3267;SDS011;1646;52.450;13.326;2022-07-29T03:14:56;4.83;;;2.80;;
3267;SDS011;1646;52.450;13.326;2022-07-29T03:19:56;4.90;;;3.37;;
3267;SDS011;1646;52.450;13.326;2022-07-29T03:24:54;7.33;;;3.50;;
3267;SDS011;1646;52.450;13.326;2022-07-29T03:29:52;9.30;;;3.60;;
3267;SDS011;1646;52.450;13.326;2022-07-29T03:34:53;4.57;;;3.20;;
3267;SDS011;1646;52.450;13.326;2022-07-29T03:39:51;6.00;;;3.10;;
3267;SDS011;1646;52.450;13.326;2022-07-29T03:44:52;7.37;;;3.10;;
3267;SDS011;1646;52.450;13.326;2022-07-29T03:49:56;3.53;;;2.87;;
3267;SDS011;1646;52.450;13.326;2022-07-29T03:54:57;3.93;;;2.80;;
3267;SDS011;1646;52.450;13.326;2022-07-29T03:59:55;4.40;;;3.17;;
3267;SDS011;1646;52.450;13.326;2022-07-29T04:04:55;12.70;;;3.60;;
3267;SDS011;1646;52.450;13.326;2022-07-29T04:09:53;5.47;;;3.17;;
3267;SDS011;1646;52.450;13.326;2022-07-29T04:14:51;6.80;;;3.50;;
3267;SDS011;1646;52.450;13.326;2022-07-29T04:19:49;7.33;;;3.00;;
3267;SDS011;1646;52.450;13.326;2022-07-29T04:24:49;4.63;;;2.97;;
3267;SDS011;1646;52.450;13.326;2022-07-29T04:29:47;6.90;;;3.30;;
3267;SDS011;1646;52.450;13.326;2022-07-29T04:34:52;12.57;;;3.87;;
3267;SDS011;1646;52.450;13.326;2022-07-29T04:39:52;6.80;;;3.37;;
3267;SDS011;1646;52.450;13.326;2022-07-29T04:44:50;8.27;;;3.53;;
3267;SDS011;1646;52.450;13.326;2022-07-29T04:49:48;10.63;;;4.00;;
3267;SDS011;1646;52.450;13.326;2022-07-29T04:54:46;7.97;;;3.27;;
3267;SDS011;1646;52.450;13.326;2022-07-29T04:59:45;5.23;;;3.67;;
3267;SDS011;1646;52.450;13.326;2022-07-29T05:04:43;6.27;;;2.87;;
3267;SDS011;1646;52.450;13.326;2022-07-29T05:09:41;7.57;;;3.87;;
3267;SDS011;1646;52.450;13.326;2022-07-29T05:14:39;10.93;;;3.27;;
3267;SDS011;1646;52.450;13.326;2022-07-29T05:19:39;10.10;;;3.50;;
3267;SDS011;1646;52.450;13.326;2022-07-29T05:24:37;8.70;;;2.67;;
3267;SDS011;1646;52.450;13.326;2022-07-29T05:29:35;11.10;;;3.27;;
3267;SDS011;1646;52.450;13.326;2022-07-29T05:34:41;6.67;;;3.90;;
3267;SDS011;1646;52.450;13.326;2022-07-29T05:39:47;9.60;;;3.40;;
3267;SDS011;1646;52.450;13.326;2022-07-29T05:44:52;4.10;;;2.90;;
3267;SDS011;1646;52.450;13.326;2022-07-29T05:49:52;13.60;;;3.60;;
3267;SDS011;1646;52.450;13.326;2022-07-29T05:54:50;6.70;;;3.90;;
3267;SDS011;1646;52.450;13.326;2022-07-29T05:59:48;8.77;;;3.00;;
3267;SDS011;1646;52.450;13.326;2022-07-29T06:04:47;11.00;;;3.70;;
3267;SDS011;1646;52.450;13.326;2022-07-29T06:09:47;11.30;;;4.00;;
3267;SDS011;1646;52.450;13.326;2022-07-29T06:14:45;7.10;;;3.23;;
3267;SDS011;1646;52.450;13.326;2022-07-29T06:19:49;9.63;;;2.97;;
3267;SDS011;1646;52.450;13.326;2022-07-29T06:24:48;4.73;;;3.17;;
3267;SDS011;1646;52.450;13.326;2022-07-29T06:29:46;11.90;;;3.70;;
3267;SDS011;1646;52.450;13.326;2022-07-29T06:34:44;11.93;;;3.97;;
3267;SDS011;1646;52.450;13.326;2022-07-29T06:39:44;8.10;;;2.70;;
3267;SDS011;1646;52.450;13.326;2022-07-29T06:44:43;7.63;;;2.80;;
3267;SDS011;1646;52.450;13.326;2022-07-29T06:49:41;5.67;;;2.80;;
3267;SDS011;1646;52.450;13.326;2022-07-29T06:54:39;14.97;;;3.07;;
3267;SDS011;1646;52.450;13.326;2022-07-29T06:59:45;9.43;;;3.20;;
3267;SDS011;1646;52.450;13.326;2022-07-29T07:04:43;12.70;;;4.40;;
3267;SDS011;1646;52.450;13.326;2022-07-29T07:09:44;15.60;;;3.57;;
3267;SDS011;1646;52.450;13.326;2022-07-29T07:14:42;4.27;;;3.03;;
3267;SDS011;1646;52.450;13.326;2022-07-29T07:19:42;6.03;;;2.97;;
3267;SDS011;1646;52.450;13.326;2022-07-29T07:24:41;6.10;;;2.63;;
3267;SDS011;1646;52.450;13.326;2022-07-29T07:29:39;13.47;;;3.80;;
3267;SDS011;1646;52.450;13.326;2022-07-29T07:34:39;3.40;;;2.43;;
3267;SDS011;1646;52.450;13.326;2022-07-29T07:39:39;4.10;;;2.43;;
3267;SDS011;1646;52.450;13.326;2022-07-29T07:44:37;9.20;;;3.17;;
3267;SDS011;1646;52.450;13.326;2022-07-29T07:49:56;7.43;;;3.00;;
3267;SDS011;1646;52.450;13.326;2022-07-29T07:54:54;10.93;;;3.10;;
3267;SDS011;1646;52.450;13.326;2022-07-29T07:59:52;6.40;;;3.00;;
3267;SDS011;1646;52.450;13.326;2022-07-29T08:04:50;8.60;;;2.07;;
3267;SDS011;1646;52.450;13.326;2022-07-29T08:09:50;12.20;;;2.57;;
3267;SDS011;1646;52.450;13.326;2022-07-29T08:14:48;5.00;;;2.70;;
3267;SDS011;1646;52.450;13.326;2022-07-29T08:19:46;7.93;;;2.23;;
3267;SDS011;1646;52.450;13.326;2022-07-29T08:24:44;9.87;;;2.33;;
3267;SDS011;1646;52.450;13.326;2022-07-29T08:29:51;4.53;;;2.33;;
3267;SDS011;1646;52.450;13.326;2022-07-29T08:34:49;8.47;;;2.10;;
3267;SDS011;1646;52.450;13.326;2022-07-29T08:39:47;7.90;;;2.20;;
3267;SDS011;1646;52.450;13.326;2022-07-29T08:44:45;8.53;;;2.00;;
3267;SDS011;1646;52.450;13.326;2022-07-29T08:49:45;6.50;;;2.10;;
3267;SDS011;1646;52.450;13.326;2022-07-29T08:54:44;3.90;;;2.40;;
3267;SDS011;1646;52.450;13.326;2022-07-29T08:59:43;8.27;;;1.80;;
3267;SDS011;1646;52.450;13.326;2022-07-29T09:04:45;9.47;;;3.03;;
3267;SDS011;1646;52.450;13.326;2022-07-29T09:09:44;6.00;;;2.33;;
3267;SDS011;1646;52.450;13.326;2022-07-29T09:14:42;3.37;;;1.83;;
3267;SDS011;1646;52.450;13.326;2022-07-29T09:19:40;7.57;;;2.00;;
3267;SDS011;1646;52.450;13.326;2022-07-29T09:24:42;3.57;;;2.60;;
3267;SDS011;1646;52.450;13.326;2022-07-29T09:29:41;7.07;;;2.13;;
3267;SDS011;1646;52.450;13.326;2022-07-29T09:34:40;3.43;;;1.97;;
3267;SDS011;1646;52.450;13.326;2022-07-29T09:39:39;5.33;;;2.13;;
3267;SDS011;1646;52.450;13.326;2022-07-29T09:44:46;3.53;;;2.17;;
3267;SDS011;1646;52.450;13.326;2022-07-29T09:49:52;6.33;;;1.77;;
3267;SDS011;1646;52.450;13.326;2022-07-29T09:55:03;6.23;;;2.27;;
3267;SDS011;1646;52.450;13.326;2022-07-29T10:00:03;4.77;;;2.57;;
3267;SDS011;1646;52.450;13.326;2022-07-29T10:05:16;3.80;;;2.17;;
3267;SDS011;1646;52.450;13.326;2022-07-29T10:10:21;5.37;;;2.40;;
3267;SDS011;1646;52.450;13.326;2022-07-29T10:15:21;3.40;;;1.90;;
3267;SDS011;1646;52.450;13.326;2022-07-29T10:20:21;3.30;;;1.67;;
3267;SDS011;1646;52.450;13.326;2022-07-29T10:25:21;4.97;;;1.77;;
3267;SDS011;1646;52.450;13.326;2022-07-29T10:30:21;5.03;;;2.57;;
3267;SDS011;1646;52.450;13.326;2022-07-29T10:40:54;9.90;;;2.33;;
3267;SDS011;1646;52.450;13.326;2022-07-29T10:46:21;3.67;;;1.87;;
3267;SDS011;1646;52.450;13.326;2022-07-29T10:51:20;7.20;;;4.17;;
3267;SDS011;1646;52.450;13.326;2022-07-29T10:56:25;8.53;;;2.00;;
3267;SDS011;1646;52.450;13.326;2022-07-29T11:01:28;2.57;;;1.40;;
3267;SDS011;1646;52.450;13.326;2022-07-29T11:12:08;4.87;;;2.03;;
3267;SDS011;1646;52.450;13.326;2022-07-29T11:23:17;4.67;;;1.67;;
3267;SDS011;1646;52.450;13.326;2022-07-29T11:28:19;2.20;;;1.70;;
3267;SDS011;1646;52.450;13.326;2022-07-29T11:33:27;3.43;;;1.93;;
3267;SDS011;1646;52.450;13.326;2022-07-29T11:38:46;2.03;;;1.83;;
3267;SDS011;1646;52.450;13.326;2022-07-29T11:43:49;3.23;;;2.23;;
3267;SDS011;1646;52.450;13.326;2022-07-29T11:48:48;2.70;;;1.80;;
3267;SDS011;1646;52.450;13.326;2022-07-29T11:53:47;6.17;;;1.90;;
3267;SDS011;1646;52.450;13.326;2022-07-29T11:58:49;3.27;;;2.20;;
3267;SDS011;1646;52.450;13.326;2022-07-29T12:03:47;4.13;;;2.93;;
3267;SDS011;1646;52.450;13.326;2022-07-29T12:09:06;2.20;;;2.00;;
3267;SDS011;1646;52.450;13.326;2022-07-29T12:14:14;2.30;;;2.10;;
3267;SDS011;1646;52.450;13.326;2022-07-29T12:19:22;2.60;;;2.40;;
3267;SDS011;1646;52.450;13.326;2022-07-29T12:24:21;10.17;;;3.00;;
3267;SDS011;1646;52.450;13.326;2022-07-29T12:29:23;4.40;;;3.20;;
3267;SDS011;1646;52.450;13.326;2022-07-29T12:34:30;7.17;;;3.07;;
3267;SDS011;1646;52.450;13.326;2022-07-29T12:39:29;13.73;;;3.80;;
3267;SDS011;1646;52.450;13.326;2022-07-29T12:49:50;6.87;;;2.80;;
3267;SDS011;1646;52.450;13.326;2022-07-29T12:55:05;13.63;;;3.00;;
3267;SDS011;1646;52.450;13.326;2022-07-29T13:00:05;5.00;;;2.67;;
3267;SDS011;1646;52.450;13.326;2022-07-29T13:05:08;5.30;;;3.10;;
3267;SDS011;1646;52.450;13.326;2022-07-29T13:10:11;7.83;;;2.70;;
3267;SDS011;1646;52.450;13.326;2022-07-29T13:15:14;6.87;;;2.80;;
3267;SDS011;1646;52.450;13.326;2022-07-29T13:20:14;5.13;;;2.63;;
3267;SDS011;1646;52.450;13.326;2022-07-29T13:25:12;9.33;;;2.70;;
3267;SDS011;1646;52.450;13.326;2022-07-29T13:30:11;8.27;;;2.70;;
3267;SDS011;1646;52.450;13.326;2022-07-29T13:35:09;5.67;;;2.60;;
3267;SDS011;1646;52.450;13.326;2022-07-29T13:40:09;5.67;;;2.63;;
3267;SDS011;1646;52.450;13.326;2022-07-29T13:45:09;7.67;;;3.00;;
3267;SDS011;1646;52.450;13.326;2022-07-29T13:50:08;7.23;;;2.80;;
3267;SDS011;1646;52.450;13.326;2022-07-29T13:55:09;3.20;;;2.90;;
3267;SDS011;1646;52.450;13.326;2022-07-29T14:00:07;9.07;;;2.60;;
3267;SDS011;1646;52.450;13.326;2022-07-29T14:05:06;9.10;;;3.20;;
3267;SDS011;1646;52.450;13.326;2022-07-29T14:10:06;4.53;;;3.13;;
3267;SDS011;1646;52.450;13.326;2022-07-29T14:15:06;4.30;;;3.10;;
3267;SDS011;1646;52.450;13.326;2022-07-29T14:20:05;3.53;;;2.63;;
3267;SDS011;1646;52.450;13.326;2022-07-29T14:25:04;5.20;;;3.00;;
3267;SDS011;1646;52.450;13.326;2022-07-29T14:30:12;2.53;;;2.30;;
3267;SDS011;1646;52.450;13.326;2022-07-29T14:35:10;4.00;;;2.73;;
3267;SDS011;1646;52.450;13.326;2022-07-29T14:40:09;5.13;;;3.37;;
3267;SDS011;1646;52.450;13.326;2022-07-29T14:45:08;2.83;;;2.63;;
3267;SDS011;1646;52.450;13.326;2022-07-29T14:50:09;2.83;;;2.43;;
3267;SDS011;1646;52.450;13.326;2022-07-29T14:55:07;8.10;;;3.20;;
3267;SDS011;1646;52.450;13.326;2022-07-29T15:00:15;3.50;;;2.77;;
3267;SDS011;1646;52.450;13.326;2022-07-29T15:05:15;7.00;;;2.67;;
3267;SDS011;1646;52.450;13.326;2022-07-29T15:10:13;7.37;;;2.93;;
3267;SDS011;1646;52.450;13.326;2022-07-29T15:15:12;3.70;;;2.10;;
3267;SDS011;1646;52.450;13.326;2022-07-29T15:20:10;4.00;;;2.53;;
3267;SDS011;1646;52.450;13.326;2022-07-29T15:25:10;4.83;;;3.23;;
3267;SDS011;1646;52.450;13.326;2022-07-29T15:30:09;4.23;;;2.60;;
3267;SDS011;1646;52.450;13.326;2022-07-29T15:35:27;2.30;;;2.17;;
3267;SDS011;1646;52.450;13.326;2022-07-29T15:40:28;3.10;;;2.90;;
3267;SDS011;1646;52.450;13.326;2022-07-29T15:45:26;2.10;;;2.00;;
3267;SDS011;1646;52.450;13.326;2022-07-29T15:50:28;3.20;;;2.60;;
3267;SDS011;1646;52.450;13.326;2022-07-29T15:55:29;3.77;;;2.57;;
3267;SDS011;1646;52.450;13.326;2022-07-29T16:00:27;4.73;;;2.77;;
3267;SDS011;1646;52.450;13.326;2022-07-29T16:05:25;4.53;;;2.53;;
3267;SDS011;1646;52.450;13.326;2022-07-29T16:10:24;5.07;;;2.50;;
3267;SDS011;1646;52.450;13.326;2022-07-29T16:15:24;3.50;;;2.60;;
3267;SDS011;1646;52.450;13.326;2022-07-29T16:20:22;6.93;;;2.73;;
3267;SDS011;1646;52.450;13.326;2022-07-29T16:25:21;8.40;;;3.40;;
3267;SDS011;1646;52.450;13.326;2022-07-29T16:30:41;6.33;;;2.53;;
3267;SDS011;1646;52.450;13.326;2022-07-29T16:35:39;6.17;;;2.60;;
3267;SDS011;1646;52.450;13.326;2022-07-29T16:40:37;8.67;;;2.67;;
3267;SDS011;1646;52.450;13.326;2022-07-29T16:45:35;4.53;;;2.63;;
3267;SDS011;1646;52.450;13.326;2022-07-29T16:50:43;7.67;;;2.10;;
3267;SDS011;1646;52.450;13.326;2022-07-29T16:55:41;3.60;;;2.27;;
3267;SDS011;1646;52.450;13.326;2022-07-29T17:00:39;3.20;;;2.80;;
3267;SDS011;1646;52.450;13.326;2022-07-29T17:05:37;5.30;;;2.80;;
3267;SDS011;1646;52.450;13.326;2022-07-29T17:10:50;6.63;;;2.63;;
3267;SDS011;1646;52.450;13.326;2022-07-29T17:15:48;6.73;;;2.77;;
3267;SDS011;1646;52.450;13.326;2022-07-29T17:20:46;7.40;;;2.40;;
3267;SDS011;1646;52.450;13.326;2022-07-29T17:25:45;7.00;;;2.63;;
3267;SDS011;1646;52.450;13.326;2022-07-29T17:30:44;2.40;;;2.20;;
3267;SDS011;1646;52.450;13.326;2022-07-29T17:35:42;6.50;;;2.83;;
3267;SDS011;1646;52.450;13.326;2022-07-29T17:40:58;4.67;;;2.80;;
3267;SDS011;1646;52.450;13.326;2022-07-29T17:46:04;5.73;;;2.70;;
3267;SDS011;1646;52.450;13.326;2022-07-29T17:51:03;2.47;;;2.27;;
3267;SDS011;1646;52.450;13.326;2022-07-29T17:56:02;5.30;;;2.97;;
3267;SDS011;1646;52.450;13.326;2022-07-29T18:01:01;5.50;;;3.73;;
3267;SDS011;1646;52.450;13.326;2022-07-29T18:06:01;6.10;;;2.63;;
3267;SDS011;1646;52.450;13.326;2022-07-29T18:10:59;4.50;;;3.10;;
3267;SDS011;1646;52.450;13.326;2022-07-29T18:15:57;4.80;;;2.50;;
3267;SDS011;1646;52.450;13.326;2022-07-29T18:20:56;3.33;;;2.20;;
3267;SDS011;1646;52.450;13.326;2022-07-29T18:25:55;7.93;;;2.43;;
3267;SDS011;1646;52.450;13.326;2022-07-29T18:30:53;10.10;;;2.60;;
3267;SDS011;1646;52.450;13.326;2022-07-29T18:35:52;7.77;;;2.90;;
3267;SDS011;1646;52.450;13.326;2022-07-29T18:41:08;3.73;;;2.50;;
3267;SDS011;1646;52.450;13.326;2022-07-29T18:46:06;4.80;;;2.50;;
3267;SDS011;1646;52.450;13.326;2022-07-29T18:51:04;4.30;;;2.37;;
3267;SDS011;1646;52.450;13.326;2022-07-29T18:56:04;3.90;;;2.20;;
3267;SDS011;1646;52.450;13.326;2022-07-29T19:01:04;7.43;;;2.20;;
3267;SDS011;1646;52.450;13.326;2022-07-29T19:06:02;7.03;;;2.47;;
3267;SDS011;1646;52.450;13.326;2022-07-29T19:11:04;7.93;;;2.90;;
3267;SDS011;1646;52.450;13.326;2022-07-29T19:16:04;3.13;;;2.30;;
3267;SDS011;1646;52.450;13.326;2022-07-29T19:21:02;5.83;;;2.97;;
3267;SDS011;1646;52.450;13.326;2022-07-29T19:26:00;3.27;;;2.10;;
3267;SDS011;1646;52.450;13.326;2022-07-29T19:31:05;8.10;;;2.00;;
3267;SDS011;1646;52.450;13.326;2022-07-29T19:36:03;5.37;;;2.40;;
3267;SDS011;1646;52.450;13.326;2022-07-29T19:41:01;8.87;;;2.20;;
3267;SDS011;1646;52.450;13.326;2022-07-29T19:46:01;6.33;;;2.43;;
3267;SDS011;1646;52.450;13.326;2022-07-29T19:51:00;4.47;;;2.47;;
3267;SDS011;1646;52.450;13.326;2022-07-29T19:55:58;6.37;;;2.83;;
3267;SDS011;1646;52.450;13.326;2022-07-29T20:00:56;7.27;;;2.97;;
3267;SDS011;1646;52.450;13.326;2022-07-29T20:05:54;6.83;;;2.50;;
3267;SDS011;1646;52.450;13.326;2022-07-29T20:10:54;4.60;;;2.47;;
3267;SDS011;1646;52.450;13.326;2022-07-29T20:15:52;7.20;;;2.20;;
3267;SDS011;1646;52.450;13.326;2022-07-29T20:20:50;5.93;;;2.40;;
3267;SDS011;1646;52.450;13.326;2022-07-29T20:25:49;6.30;;;3.20;;
3267;SDS011;1646;52.450;13.326;2022-07-29T20:30:50;12.70;;;2.93;;
3267;SDS011;1646;52.450;13.326;2022-07-29T20:35:48;6.60;;;2.70;;
3267;SDS011;1646;52.450;13.326;2022-07-29T20:40:47;7.73;;;2.50;;
3267;SDS011;1646;52.450;13.326;2022-07-29T20:45:45;4.77;;;2.40;;
3267;SDS011;1646;52.450;13.326;2022-07-29T20:50:45;6.57;;;2.50;;
3267;SDS011;1646;52.450;13.326;2022-07-29T20:55:44;7.50;;;2.63;;
3267;SDS011;1646;52.450;13.326;2022-07-29T21:00:42;6.03;;;2.37;;
3267;SDS011;1646;52.450;13.326;2022-07-29T21:05:40;7.50;;;2.30;;
3267;SDS011;1646;52.450;13.326;2022-07-29T21:10:40;6.90;;;2.47;;
3267;SDS011;1646;52.450;13.326;2022-07-29T21:15:38;6.63;;;2.60;;
3267;SDS011;1646;52.450;13.326;2022-07-29T21:20:39;4.50;;;2.53;;
3267;SDS011;1646;52.450;13.326;2022-07-29T21:25:37;5.13;;;2.23;;
3267;SDS011;1646;52.450;13.326;2022-07-29T21:30:36;4.07;;;1.83;;
3267;SDS011;1646;52.450;13.326;2022-07-29T21:35:34;9.87;;;2.67;;
3267;SDS011;1646;52.450;13.326;2022-07-29T21:40:52;5.40;;;2.03;;
3267;SDS011;1646;52.450;13.326;2022-07-29T21:45:52;3.30;;;2.10;;
3267;SDS011;1646;52.450;13.326;2022-07-29T21:50:50;5.27;;;2.80;;
3267;SDS011;1646;52.450;13.326;2022-07-29T21:55:49;5.43;;;2.80;;
3267;SDS011;1646;52.450;13.326;2022-07-29T22:00:52;6.67;;;2.33;;
3267;SDS011;1646;52.450;13.326;2022-07-29T22:05:50;7.27;;;2.60;;
3267;SDS011;1646;52.450;13.326;2022-07-29T22:10:48;4.07;;;2.23;;
3267;SDS011;1646;52.450;13.326;2022-07-29T22:15:46;4.13;;;2.23;;
3267;SDS011;1646;52.450;13.326;2022-07-29T22:20:45;6.07;;;2.40;;
3267;SDS011;1646;52.450;13.326;2022-07-29T22:25:44;7.70;;;2.63;;
3267;SDS011;1646;52.450;13.326;2022-07-29T22:30:42;3.90;;;1.97;;
3267;SDS011;1646;52.450;13.326;2022-07-29T22:35:40;4.60;;;2.50;;
3267;SDS011;1646;52.450;13.326;2022-07-29T22:40:39;3.60;;;2.30;;
3267;SDS011;1646;52.450;13.326;2022-07-29T22:45:39;4.00;;;2.37;;
3267;SDS011;1646;52.450;13.326;2022-07-29T22:50:37;3.60;;;2.60;;
3267;SDS011;1646;52.450;13.326;2022-07-29T22:55:36;2.90;;;2.43;;
3267;SDS011;1646;52.450;13.326;2022-07-29T23:00:35;5.27;;;2.40;;
3267;SDS011;1646;52.450;13.326;2022-07-29T23:05:33;9.67;;;2.50;;
3267;SDS011;1646;52.450;13.326;2022-07-29T23:10:32;5.23;;;2.50;;
3267;SDS011;1646;52.450;13.326;2022-07-29T23:15:30;3.10;;;1.97;;
3267;SDS011;1646;52.450;13.326;2022-07-29T23:20:29;3.30;;;2.33;;
3267;SDS011;1646;52.450;13.326;2022-07-29T23:25:27;9.77;;;2.63;;
3267;SDS011;1646;52.450;13.326;2022-07-29T23:30:26;7.10;;;2.00;;
3267;SDS011;1646;52.450;13.326;2022-07-29T23:35:24;4.10;;;2.40;;
3267;SDS011;1646;52.450;13.326;2022-07-29T23:40:24;5.20;;;2.30;;
3267;SDS011;1646;52.450;13.326;2022-07-29T23:45:22;3.17;;;2.50;;
3267;SDS011;1646;52.450;13.326;2022-07-29T23:50:40;4.37;;;2.13;;
3267;SDS011;1646;52.450;13.326;2022-07-29T23:55:39;9.47;;;2.27;;
